首页
METAR-TAF:

METAR-TAF

机场 :

Worland Municipal Airport

Worland, 怀俄明州, 美国

纬度: 43-57-57N, 经度: 107-57-03W, 海拔: 1288米

当前天气观测

该预报发布于43分钟前的20:53 UTC
风速6节,风向多变
温度 26°C
湿度 32%
气压 1013 hPa
能見度: 16.1公里
散云层高于7500英尺

METAR: KWRL 182053Z AUTO VRB06KT 10SM SCT075 26/08 A2992 RMK AO2 SLP099 T02560078 56023

时间: 15:36 (21:36 UTC)

预报

该预报发布于4小时和5分钟前的17:31 UTC
预报有效从18日的 18点(UTC)到 19日的 18点(UTC)
风速4节,风向多变
能見度: 10公里
散云层高于11000英尺
从 18日的 1900点(UTC)
风速5节,风向
能見度: 10公里
散云层高于6000英尺
散云层高于11000英尺
从 18日的 2300点(UTC)
风速5节,风向
能見度: 10公里
散云层高于6000英尺, 积雨云.
多云层高于12000英尺
附近有雷暴
从 19日的 0600点(UTC)
风速6节,风向北转西北
能見度: 10公里
散云层高于7000英尺
多云层高于15000英尺
从 19日的 0900点(UTC)
风速5节,风向多变
能見度: 10公里
散云层高于18000英尺

TAF: KWRL 181731Z 1818/1918 VRB04KT P6SM SCT110 FM181900 35005KT P6SM SCT060 SCT110 FM182300 35005KT P6SM VCTS SCT060CB BKN120 FM190600 34006KT P6SM SCT070 BKN150 FM190900 VRB05KT P6SM SCT180

超过4000个机场的气象观测和天气预报(METAR&TAF报告)。

可查询的气象台以黄色和红色小点在地图上表示。

将鼠标移到小点上方,可查看气象台名称。

然后点击查看天气观测和预报。

如需切换地图:点击带黑十字的绿色按钮放大地图;点击带横线的绿色按钮缩小地图;或者点击绿色箭头查看邻近地区的地图。


METAR-TAF: